createdAt,value
2022-12-03T00:00:12.569Z,41.03
2022-12-03T00:02:42.028Z,41.55
2022-12-03T00:05:10.930Z,38.90
2022-12-03T00:07:38.604Z,37.45
2022-12-03T00:10:07.603Z,38.50
2022-12-03T00:12:35.345Z,36.72
2022-12-03T00:15:03.585Z,36.13
2022-12-03T00:17:33.165Z,35.67
2022-12-03T00:20:00.802Z,37.47
2022-12-03T00:22:28.475Z,37.83
2022-12-03T00:24:56.310Z,35.47
2022-12-03T00:27:24.117Z,41.65
2022-12-03T00:29:51.771Z,37.65
2022-12-03T00:32:19.382Z,38.22
2022-12-03T00:34:46.988Z,38.40
2022-12-03T00:37:14.573Z,38.55
2022-12-03T00:39:42.181Z,34.40
2022-12-03T00:42:09.818Z,35.00
2022-12-03T00:44:37.383Z,38.50
2022-12-03T00:47:05.188Z,45.13
2022-12-03T00:49:33.030Z,43.03
2022-12-03T00:52:00.682Z,41.90
2022-12-03T00:54:31.896Z,36.67
2022-12-03T00:56:59.907Z,36.88
2022-12-03T00:59:27.635Z,34.67
2022-12-03T01:01:55.579Z,33.38
2022-12-03T01:04:23.300Z,36.40
2022-12-03T01:06:50.930Z,31.73
2022-12-03T01:09:18.579Z,36.13
2022-12-03T01:11:46.230Z,37.40
2022-12-03T01:14:17.289Z,37.38
2022-12-03T01:16:45.989Z,33.63
2022-12-03T01:19:15.817Z,34.58
2022-12-03T01:21:46.915Z,33.70
2022-12-03T01:24:14.941Z,35.50
2022-12-03T01:26:42.820Z,34.63
2022-12-03T01:29:10.746Z,35.17
2022-12-03T01:31:56.748Z,30.33
2022-12-03T01:36:52.594Z,34.80
2022-12-03T01:39:20.389Z,28.35
2022-12-03T01:41:49.929Z,31.02
2022-12-03T01:44:39.038Z,31.10
2022-12-03T01:47:13.298Z,34.55
2022-12-03T01:49:51.137Z,30.15
2022-12-03T01:52:24.295Z,31.98
2022-12-03T01:54:56.455Z,30.42
2022-12-03T01:57:30.494Z,31.58
2022-12-03T01:59:59.793Z,30.20
2022-12-03T02:02:32.315Z,30.15
2022-12-03T02:05:01.522Z,33.08
2022-12-03T02:07:33.671Z,34.08
2022-12-03T02:10:03.728Z,28.45
2022-12-03T02:12:47.844Z,27.10
2022-12-03T02:15:15.582Z,29.00
2022-12-03T02:17:44.189Z,29.50
2022-12-03T02:20:13.233Z,33.30
2022-12-03T02:22:54.165Z,27.90
2022-12-03T02:25:26.600Z,29.38
2022-12-03T02:27:55.771Z,35.53
2022-12-03T02:30:26.825Z,32.13
2022-12-03T02:32:55.945Z,29.45
2022-12-03T02:35:30.981Z,30.02
2022-12-03T02:38:27.226Z,33.40
2022-12-03T02:40:59.800Z,33.55
2022-12-03T02:43:27.714Z,32.97
2022-12-03T02:45:59.013Z,28.73
2022-12-03T02:48:31.964Z,29.10
2022-12-03T02:51:08.879Z,28.80
2022-12-03T02:53:45.129Z,33.03
2022-12-03T02:56:16.700Z,30.70
2022-12-03T02:58:47.284Z,33.97
2022-12-03T03:01:15.690Z,31.02
2022-12-03T03:03:45.902Z,32.90
2022-12-03T03:06:14.539Z,32.70
2022-12-03T03:08:43.239Z,37.15
2022-12-03T03:11:11.240Z,34.47
2022-12-03T03:13:39.615Z,32.97
2022-12-03T03:16:08.424Z,33.42
2022-12-03T03:18:36.463Z,33.95
2022-12-03T03:21:04.948Z,35.58
2022-12-03T03:23:32.669Z,32.58
2022-12-03T03:26:06.063Z,32.95
2022-12-03T03:28:38.666Z,32.80
2022-12-03T03:31:09.511Z,32.33
2022-12-03T03:33:39.916Z,32.13
2022-12-03T03:36:08.685Z,33.55
2022-12-03T03:38:38.231Z,29.90
2022-12-03T03:41:07.942Z,27.30
2022-12-03T03:43:37.915Z,31.70
2022-12-03T03:46:07.031Z,32.25
2022-12-03T03:48:35.860Z,30.50
2022-12-03T03:51:08.946Z,34.75
2022-12-03T03:53:41.039Z,35.72
2022-12-03T03:56:09.645Z,31.35
2022-12-03T03:58:37.922Z,31.60
2022-12-03T04:01:05.932Z,33.95
2022-12-03T04:03:34.626Z,34.83
2022-12-03T04:06:02.442Z,35.80
2022-12-03T04:08:30.407Z,31.08
2022-12-03T04:11:17.864Z,30.40
2022-12-03T04:13:45.475Z,32.08
2022-12-03T04:16:13.213Z,32.47
2022-12-03T04:18:43.839Z,31.40
2022-12-03T04:21:40.111Z,34.22
2022-12-03T04:24:10.182Z,30.50
2022-12-03T04:26:56.873Z,32.67
2022-12-03T04:29:24.534Z,34.40
2022-12-03T04:32:10.531Z,35.42
2022-12-03T04:34:56.919Z,37.55
2022-12-03T04:37:24.791Z,33.38
2022-12-03T04:39:52.504Z,34.80
2022-12-03T04:42:20.293Z,34.60
2022-12-03T04:44:47.894Z,35.72
2022-12-03T04:47:19.508Z,36.70
2022-12-03T04:49:50.596Z,34.17
2022-12-03T04:52:20.883Z,28.40
2022-12-03T04:54:48.560Z,35.60
2022-12-03T04:57:16.370Z,35.63
2022-12-03T04:59:43.960Z,35.78
2022-12-03T05:02:11.604Z,37.08
2022-12-03T05:04:39.299Z,35.08
2022-12-03T05:07:06.942Z,38.30
2022-12-03T05:09:34.588Z,34.15
2022-12-03T05:12:02.294Z,37.85
2022-12-03T05:14:30.104Z,35.22
2022-12-03T05:16:57.774Z,35.10
2022-12-03T05:19:45.697Z,41.22
2022-12-03T05:22:13.332Z,35.47
2022-12-03T05:24:41.027Z,34.85
2022-12-03T05:27:08.637Z,37.60
2022-12-03T05:29:36.233Z,42.15
2022-12-03T05:32:03.961Z,41.08
2022-12-03T05:34:31.598Z,36.15
2022-12-03T05:36:59.222Z,38.30
2022-12-03T05:39:26.841Z,38.10
2022-12-03T05:42:12.904Z,40.15
2022-12-03T05:47:08.415Z,39.92
2022-12-03T05:49:36.039Z,42.20
2022-12-03T05:52:03.932Z,44.45
2022-12-03T05:54:31.528Z,40.72
2022-12-03T05:56:59.154Z,37.15
2022-12-03T05:59:26.756Z,37.92
2022-12-03T06:01:54.389Z,38.88
2022-12-03T06:04:22.002Z,40.45
2022-12-03T06:06:49.768Z,41.60
2022-12-03T06:09:17.411Z,45.42
2022-12-03T06:11:45.054Z,37.47
2022-12-03T06:14:12.615Z,44.50
2022-12-03T06:16:40.236Z,40.33
2022-12-03T06:19:07.894Z,43.33
2022-12-03T06:21:35.537Z,45.45
2022-12-03T06:24:03.352Z,42.67
2022-12-03T06:26:30.956Z,41.95
2022-12-03T06:28:58.581Z,46.15
2022-12-03T06:31:26.229Z,45.83
2022-12-03T06:33:54.029Z,39.63
2022-12-03T06:36:23.442Z,51.30
2022-12-03T06:38:51.214Z,44.15
2022-12-03T06:41:18.837Z,40.67
2022-12-03T06:43:46.490Z,47.70
2022-12-03T06:46:14.180Z,42.30
2022-12-03T06:48:41.828Z,44.00
2022-12-03T06:51:09.367Z,42.60
2022-12-03T06:53:37.077Z,50.25
2022-12-03T06:56:05.175Z,47.15
2022-12-03T06:58:32.833Z,44.03
2022-12-03T07:01:00.414Z,47.28
2022-12-03T07:03:27.968Z,46.08
2022-12-03T07:05:55.689Z,44.33
2022-12-03T07:08:23.261Z,48.20
2022-12-03T07:10:50.938Z,46.40
2022-12-03T07:13:18.558Z,41.72
2022-12-03T07:15:46.230Z,46.83
2022-12-03T07:18:13.847Z,47.08
2022-12-03T07:20:41.497Z,46.08
2022-12-03T07:23:09.172Z,45.63
2022-12-03T07:25:36.760Z,45.88
2022-12-03T07:28:04.826Z,43.00
2022-12-03T07:30:32.461Z,50.72
2022-12-03T07:33:00.074Z,49.83
2022-12-03T07:35:27.976Z,46.03
2022-12-03T07:37:55.837Z,45.25
2022-12-03T07:40:23.505Z,49.80
2022-12-03T07:42:51.114Z,49.35
2022-12-03T07:45:18.735Z,44.95
2022-12-03T07:47:46.395Z,48.00
2022-12-03T07:50:14.136Z,50.78
2022-12-03T07:52:41.765Z,44.80
2022-12-03T07:55:11.830Z,46.17
2022-12-03T07:57:39.733Z,46.22
2022-12-03T08:00:08.178Z,46.40
2022-12-03T08:02:36.287Z,42.70
2022-12-03T08:05:05.312Z,46.42
2022-12-03T08:07:33.158Z,49.20
2022-12-03T08:10:00.784Z,42.88
2022-12-03T08:12:42.231Z,46.47
2022-12-03T08:15:19.005Z,51.97
2022-12-03T08:17:53.539Z,47.65
2022-12-03T08:20:25.033Z,45.47
2022-12-03T08:22:54.834Z,47.90
2022-12-03T08:25:29.743Z,46.70
2022-12-03T08:28:11.391Z,48.88
2022-12-03T08:30:39.837Z,47.90
2022-12-03T08:33:28.524Z,44.13
2022-12-03T08:35:56.264Z,48.75
2022-12-03T08:38:25.043Z,50.88
2022-12-03T08:40:55.684Z,53.42
2022-12-03T08:43:26.309Z,50.95
2022-12-03T08:45:57.777Z,42.05
2022-12-03T08:48:38.168Z,46.60
2022-12-03T08:51:26.007Z,47.33
2022-12-03T08:54:15.042Z,45.75
2022-12-03T08:56:43.434Z,45.28
2022-12-03T08:59:30.275Z,48.80
2022-12-03T09:01:59.449Z,48.50
2022-12-03T09:04:31.994Z,45.60
2022-12-03T09:06:59.809Z,46.45
2022-12-03T09:09:27.977Z,53.33
2022-12-03T09:11:56.150Z,48.50
2022-12-03T09:14:23.958Z,53.40
2022-12-03T09:16:56.203Z,49.45
2022-12-03T09:19:26.342Z,52.78
2022-12-03T09:21:55.217Z,48.65
2022-12-03T09:24:23.117Z,51.15
2022-12-03T09:26:50.738Z,46.97
2022-12-03T09:29:18.338Z,44.67
2022-12-03T09:31:46.143Z,50.08
2022-12-03T09:34:13.805Z,46.35
2022-12-03T09:36:41.439Z,50.60
2022-12-03T09:39:09.642Z,49.67
2022-12-03T09:41:37.416Z,51.30
2022-12-03T09:44:07.714Z,45.65
2022-12-03T09:46:38.660Z,59.35
2022-12-03T09:49:13.908Z,50.65
2022-12-03T09:51:45.462Z,47.42
2022-12-03T09:54:25.234Z,45.78
2022-12-03T09:56:55.795Z,48.72
2022-12-03T09:59:27.732Z,48.15
2022-12-03T10:01:55.674Z,54.60
2022-12-03T10:04:24.205Z,53.92
2022-12-03T10:06:51.919Z,52.85
2022-12-03T10:09:26.841Z,46.60
2022-12-03T10:12:13.401Z,46.38
2022-12-03T10:14:42.489Z,50.80
2022-12-03T10:17:11.795Z,43.88
2022-12-03T10:19:40.405Z,53.75
2022-12-03T10:22:08.667Z,44.45
2022-12-03T10:24:37.868Z,48.08
2022-12-03T10:27:24.968Z,45.50
2022-12-03T10:30:02.061Z,50.65
2022-12-03T10:32:44.419Z,48.78
2022-12-03T10:35:41.155Z,46.97
2022-12-03T10:38:22.381Z,51.47
2022-12-03T10:40:50.656Z,48.50
2022-12-03T10:43:18.205Z,46.08
2022-12-03T10:45:52.598Z,44.60
2022-12-03T10:48:26.288Z,50.92
2022-12-03T10:51:04.713Z,46.55
2022-12-03T10:53:36.199Z,55.15
2022-12-03T10:56:07.029Z,48.22
2022-12-03T10:58:37.972Z,55.92
2022-12-03T11:01:26.548Z,38.80
2022-12-03T11:04:02.902Z,44.15
2022-12-03T11:06:34.878Z,42.58
2022-12-03T11:09:08.879Z,46.33
2022-12-03T11:11:37.208Z,48.88
2022-12-03T11:14:10.639Z,47.38
2022-12-03T11:16:42.014Z,47.55
2022-12-03T11:19:12.613Z,44.97
2022-12-03T11:22:10.138Z,53.55
2022-12-03T11:24:40.288Z,48.33
2022-12-03T11:27:10.802Z,49.60
2022-12-03T11:30:00.037Z,44.30
2022-12-03T11:32:40.445Z,51.22
2022-12-03T11:35:34.480Z,48.13
2022-12-03T11:38:52.321Z,49.92
2022-12-03T11:41:35.164Z,49.28
2022-12-03T11:44:29.315Z,50.45
2022-12-03T11:46:58.386Z,46.53
2022-12-03T11:49:34.913Z,46.63
2022-12-03T11:52:37.574Z,48.30
2022-12-03T11:55:30.537Z,50.38
2022-12-03T11:58:01.939Z,44.85
2022-12-03T12:00:30.982Z,47.20
2022-12-03T12:02:59.188Z,50.92
2022-12-03T12:05:33.990Z,51.92
2022-12-03T12:08:03.262Z,48.10
2022-12-03T12:10:49.436Z,49.67
2022-12-03T12:13:55.581Z,56.92
2022-12-03T12:16:50.104Z,49.47
2022-12-03T12:19:31.464Z,55.45
2022-12-03T12:22:25.167Z,50.63
2022-12-03T12:25:05.820Z,53.78
2022-12-03T12:27:45.263Z,50.15
2022-12-03T12:30:18.196Z,51.92
2022-12-03T12:32:50.148Z,52.72
2022-12-03T12:35:25.296Z,60.30
2022-12-03T12:38:12.716Z,53.80
2022-12-03T12:43:27.540Z,51.63
2022-12-03T12:46:13.563Z,56.05
2022-12-03T12:48:47.892Z,54.17
2022-12-03T12:51:21.092Z,53.92
2022-12-03T12:53:49.900Z,52.83
2022-12-03T12:56:32.901Z,52.05
2022-12-03T12:59:21.943Z,52.58
2022-12-03T13:01:50.594Z,55.63
2022-12-03T13:04:22.220Z,55.90
2022-12-03T13:06:53.814Z,52.00
2022-12-03T13:09:27.129Z,52.38
2022-12-03T13:12:00.915Z,48.83
2022-12-03T13:14:36.712Z,48.78
2022-12-03T13:17:19.597Z,52.22
2022-12-03T13:20:00.631Z,50.45
2022-12-03T13:22:33.251Z,58.58
2022-12-03T13:25:58.273Z,52.92
2022-12-03T13:28:21.004Z,53.60
2022-12-03T13:30:48.643Z,54.65
2022-12-03T13:33:26.569Z,50.60
2022-12-03T13:35:56.348Z,51.70
2022-12-03T13:38:25.836Z,49.60
2022-12-03T13:41:00.428Z,52.00
2022-12-03T13:43:32.696Z,50.05
2022-12-03T13:46:01.273Z,48.95
2022-12-03T13:48:35.854Z,55.97
2022-12-03T13:51:31.889Z,51.50
2022-12-03T13:54:00.260Z,54.28
2022-12-03T13:56:33.905Z,49.85
2022-12-03T13:59:02.104Z,52.58
2022-12-03T14:01:30.152Z,50.97
2022-12-03T14:03:57.849Z,44.13
2022-12-03T14:06:25.504Z,46.42
2022-12-03T14:08:53.157Z,50.88
2022-12-03T14:11:39.601Z,47.30
2022-12-03T14:14:07.167Z,49.55
2022-12-03T14:16:34.781Z,49.15
2022-12-03T14:19:02.471Z,45.42
2022-12-03T14:21:30.099Z,46.17
2022-12-03T14:23:57.753Z,41.67
2022-12-03T14:26:25.335Z,49.58
2022-12-03T14:28:52.963Z,44.92
2022-12-03T14:31:20.584Z,41.03
2022-12-03T14:33:48.303Z,43.95
2022-12-03T14:36:16.091Z,44.00
2022-12-03T14:38:43.712Z,39.53
2022-12-03T14:41:31.328Z,43.28
2022-12-03T14:43:58.952Z,42.65
2022-12-03T14:46:26.574Z,45.72
2022-12-03T14:48:54.741Z,43.20
2022-12-03T14:51:22.389Z,43.70
2022-12-03T14:53:50.004Z,41.78
2022-12-03T14:56:19.828Z,45.15
2022-12-03T14:58:47.457Z,44.53
2022-12-03T15:01:15.131Z,44.35
2022-12-03T15:03:42.791Z,48.63
2022-12-03T15:06:10.379Z,42.95
2022-12-03T15:08:38.057Z,39.92
2022-12-03T15:11:05.981Z,42.90
2022-12-03T15:13:33.712Z,47.15
2022-12-03T15:16:01.350Z,42.65
2022-12-03T15:18:30.757Z,48.88
2022-12-03T15:20:58.398Z,42.72
2022-12-03T15:23:26.068Z,44.25
2022-12-03T15:25:53.662Z,43.97
2022-12-03T15:28:23.072Z,46.70
2022-12-03T15:30:51.123Z,47.83
2022-12-03T15:33:18.744Z,45.45
2022-12-03T15:35:46.451Z,47.22
2022-12-03T15:38:14.164Z,46.70
2022-12-03T15:40:41.835Z,47.15
2022-12-03T15:43:09.827Z,43.80
2022-12-03T15:45:38.043Z,46.92
2022-12-03T15:48:06.145Z,45.40
2022-12-03T15:50:39.764Z,42.60
2022-12-03T15:53:08.007Z,41.75
2022-12-03T15:55:35.613Z,45.97
2022-12-03T15:58:03.215Z,50.38
2022-12-03T16:00:31.038Z,46.42
2022-12-03T16:02:59.734Z,46.20
2022-12-03T16:05:27.482Z,45.80
2022-12-03T16:07:55.135Z,43.63
2022-12-03T16:10:22.841Z,50.05
2022-12-03T16:12:50.519Z,49.28
2022-12-03T16:15:22.091Z,46.40
2022-12-03T16:17:52.789Z,44.38
2022-12-03T16:20:20.469Z,45.78
2022-12-03T16:22:48.092Z,45.33
2022-12-03T16:25:15.771Z,45.00
2022-12-03T16:27:43.566Z,45.53
2022-12-03T16:30:12.385Z,41.65
2022-12-03T16:32:40.030Z,45.25
2022-12-03T16:35:08.276Z,47.85
2022-12-03T16:37:36.694Z,45.67
2022-12-03T16:40:05.046Z,48.40
2022-12-03T16:42:32.848Z,50.65
2022-12-03T16:45:03.321Z,41.17
2022-12-03T16:47:34.388Z,51.30
2022-12-03T16:50:04.974Z,52.67
2022-12-03T16:52:32.977Z,48.78
2022-12-03T16:55:00.575Z,46.47
2022-12-03T16:57:33.393Z,50.67
2022-12-03T17:00:01.512Z,48.45
2022-12-03T17:02:29.484Z,52.15
2022-12-03T17:04:57.171Z,46.78
2022-12-03T17:07:24.900Z,44.95
2022-12-03T17:09:52.891Z,45.10
2022-12-03T17:12:20.729Z,49.15
2022-12-03T17:14:48.420Z,45.58
2022-12-03T17:17:16.033Z,41.72
2022-12-03T17:19:43.645Z,44.72
2022-12-03T17:22:13.256Z,47.75
2022-12-03T17:24:40.900Z,44.38
2022-12-03T17:27:08.993Z,41.13
2022-12-03T17:29:36.865Z,41.15
2022-12-03T17:32:05.100Z,44.70
2022-12-03T17:34:32.752Z,41.28
2022-12-03T17:37:00.378Z,39.42
2022-12-03T17:39:27.989Z,41.67
2022-12-03T17:41:55.687Z,42.03
2022-12-03T17:44:24.358Z,46.05
2022-12-03T17:46:52.049Z,42.72
2022-12-03T17:49:19.671Z,41.50
2022-12-03T17:51:47.286Z,41.25
2022-12-03T17:54:14.892Z,40.08
2022-12-03T17:56:45.676Z,38.90
2022-12-03T17:59:13.828Z,37.72
2022-12-03T18:01:41.808Z,39.88
2022-12-03T18:04:10.548Z,42.63
2022-12-03T18:06:38.347Z,40.25
2022-12-03T18:09:06.067Z,40.80
2022-12-03T18:11:34.387Z,49.03
2022-12-03T18:14:02.362Z,46.38
2022-12-03T18:16:30.098Z,44.13
2022-12-03T18:19:02.009Z,44.42
2022-12-03T18:21:34.812Z,44.53
2022-12-03T18:24:02.681Z,41.63
2022-12-03T18:26:30.566Z,43.08
2022-12-03T18:28:58.178Z,45.33
2022-12-03T18:31:26.014Z,42.25
2022-12-03T18:33:53.836Z,40.22
2022-12-03T18:36:25.957Z,44.20
2022-12-03T18:38:56.431Z,43.72
2022-12-03T18:41:25.157Z,48.35
2022-12-03T18:43:53.114Z,49.08
2022-12-03T18:49:10.424Z,47.25
2022-12-03T18:51:38.325Z,47.88
2022-12-03T18:54:15.074Z,49.33
2022-12-03T18:56:42.765Z,46.22
2022-12-03T18:59:11.297Z,51.88
2022-12-03T19:01:39.062Z,53.42
2022-12-03T19:04:10.856Z,56.30
2022-12-03T19:06:38.738Z,53.47
2022-12-03T19:09:06.789Z,53.72
2022-12-03T19:11:34.536Z,51.00
2022-12-03T19:14:05.468Z,50.13
2022-12-03T19:16:36.168Z,60.80
2022-12-03T19:19:07.984Z,53.47
2022-12-03T19:21:36.364Z,57.30
2022-12-03T19:24:23.865Z,55.75
2022-12-03T19:26:54.722Z,54.53
2022-12-03T19:29:23.409Z,50.13
2022-12-03T19:31:52.266Z,49.20
2022-12-03T19:34:20.441Z,55.65
2022-12-03T19:36:48.319Z,58.05
2022-12-03T19:39:15.995Z,63.45
2022-12-03T19:41:44.654Z,55.20
2022-12-03T19:44:14.934Z,58.42
2022-12-03T19:46:43.382Z,53.95
2022-12-03T19:49:11.534Z,63.70
2022-12-03T19:51:39.177Z,62.05
2022-12-03T19:54:11.012Z,55.72
2022-12-03T19:56:39.392Z,55.65
2022-12-03T19:59:07.842Z,58.33
2022-12-03T20:01:40.417Z,59.13
2022-12-03T20:04:11.157Z,60.08
2022-12-03T20:06:39.178Z,65.07
2022-12-03T20:09:12.160Z,54.53
2022-12-03T20:11:41.480Z,61.90
2022-12-03T20:14:15.791Z,56.78
2022-12-03T20:16:44.959Z,62.78
2022-12-03T20:19:16.157Z,61.50
2022-12-03T20:21:44.965Z,59.83
2022-12-03T20:24:18.041Z,59.80
2022-12-03T20:26:46.190Z,60.72
2022-12-03T20:29:14.253Z,56.83
2022-12-03T20:31:42.089Z,62.08
2022-12-03T20:34:11.175Z,58.65
2022-12-03T20:36:39.941Z,62.17
2022-12-03T20:39:08.401Z,61.80
2022-12-03T20:41:37.854Z,61.78
2022-12-03T20:44:07.667Z,58.28
2022-12-03T20:46:36.493Z,57.65
2022-12-03T20:49:05.230Z,60.25
2022-12-03T20:51:33.596Z,55.88
2022-12-03T20:54:01.923Z,59.03
2022-12-03T20:56:36.069Z,56.95
2022-12-03T20:59:08.208Z,55.85
2022-12-03T21:01:38.563Z,63.92
2022-12-03T21:04:08.442Z,52.63
2022-12-03T21:06:37.686Z,54.55
2022-12-03T21:09:07.078Z,54.65
2022-12-03T21:11:38.988Z,53.33
2022-12-03T21:14:07.053Z,54.45
2022-12-03T21:19:25.939Z,53.35
2022-12-03T21:21:53.602Z,54.53
2022-12-03T21:24:21.301Z,54.83
2022-12-03T21:26:50.226Z,52.28
2022-12-03T21:29:18.187Z,52.50
2022-12-03T21:31:46.647Z,49.58
2022-12-03T21:34:14.376Z,51.90
2022-12-03T21:36:42.069Z,55.53
2022-12-03T21:39:09.875Z,52.42
2022-12-03T21:41:37.541Z,56.95
2022-12-03T21:44:05.967Z,53.78
2022-12-03T21:47:12.137Z,51.80
2022-12-03T21:49:22.685Z,55.42
2022-12-03T21:51:50.433Z,51.28
2022-12-03T21:54:18.510Z,54.42
2022-12-03T21:56:46.140Z,56.35
2022-12-03T21:59:13.774Z,61.15
2022-12-03T22:01:46.729Z,54.47
2022-12-03T22:04:15.660Z,61.92
2022-12-03T22:06:43.386Z,52.88
2022-12-03T22:09:11.047Z,52.60
2022-12-03T22:11:38.877Z,54.20
2022-12-03T22:14:08.200Z,59.17
2022-12-03T22:16:36.104Z,55.80
2022-12-03T22:19:04.187Z,53.28
2022-12-03T22:21:32.499Z,53.63
2022-12-03T22:24:00.123Z,62.38
2022-12-03T22:26:27.761Z,58.72
2022-12-03T22:28:55.400Z,61.05
2022-12-03T22:31:23.051Z,51.70
2022-12-03T22:33:50.801Z,59.78
2022-12-03T22:36:21.395Z,55.30
2022-12-03T22:38:50.799Z,58.03
2022-12-03T22:41:19.368Z,61.92
2022-12-03T22:43:48.517Z,68.80
2022-12-03T22:46:17.268Z,59.55
2022-12-03T22:48:46.745Z,65.68
2022-12-03T22:51:21.936Z,63.40
2022-12-03T22:53:59.620Z,59.45
2022-12-03T22:56:29.670Z,66.90
2022-12-03T22:58:57.721Z,69.15
2022-12-03T23:01:30.765Z,65.70
2022-12-03T23:03:59.255Z,68.07
2022-12-03T23:06:28.665Z,61.97
2022-12-03T23:08:57.980Z,65.68
2022-12-03T23:11:28.306Z,68.65
2022-12-03T23:13:57.091Z,65.45
2022-12-03T23:16:31.406Z,71.18
2022-12-03T23:19:01.170Z,64.85
2022-12-03T23:21:33.115Z,68.40
2022-12-03T23:24:03.412Z,63.83
2022-12-03T23:26:35.991Z,68.97
2022-12-03T23:29:05.484Z,70.60
2022-12-03T23:31:33.753Z,69.05
2022-12-03T23:34:02.071Z,69.07
2022-12-03T23:36:32.348Z,60.88
2022-12-03T23:39:00.505Z,66.60
2022-12-03T23:41:28.596Z,64.07
2022-12-03T23:43:57.121Z,70.75
2022-12-03T23:46:27.332Z,68.55
2022-12-03T23:48:55.696Z,72.45
2022-12-03T23:51:24.834Z,75.35
2022-12-03T23:53:54.482Z,72.65
2022-12-03T23:56:26.931Z,73.80
2022-12-03T23:58:54.624Z,69.05
